Time;durP1;ratioP1;P1;durP2;ratioP2;P2;SDS_P1;SDS_P2;PMS_P1;PMS_P2;Temp;Humidity;BMP_temperature;BMP_pressure;BME280_temperature;BME280_humidity;BME280_pressure;Samples;Min_cycle;Max_cycle;Signal;HPM_P1;HPM_P2
2020/12/28 00:00:07;;;;;;;3.78;2.72;;;6.20;90.50;;;;;;6372752;27;20342;-77
2020/12/28 00:03:08;;;;;;;0.80;0.80;;;6.20;89.10;;;;;;6354721;27;20080;-77
2020/12/28 00:06:08;;;;;;;0.70;0.70;;;6.60;91.10;;;;;;6372910;27;20023;-77
2020/12/28 00:09:09;;;;;;;0.55;0.55;;;6.10;91.00;;;;;;6372201;27;20019;-77
2020/12/28 00:12:10;;;;;;;0.80;0.80;;;6.50;92.00;;;;;;6372605;27;20044;-76
2020/12/28 00:15:10;;;;;;;0.57;0.57;;;6.30;91.70;;;;;;6372942;28;20337;-77
2020/12/28 00:18:11;;;;;;;0.77;0.77;;;6.50;91.10;;;;;;6354736;28;20091;-77
2020/12/28 00:21:11;;;;;;;0.70;0.70;;;6.60;91.50;;;;;;6354600;28;20031;-77
2020/12/28 00:24:12;;;;;;;0.65;0.65;;;6.50;92.30;;;;;;6354111;27;20088;-77
2020/12/28 00:27:12;;;;;;;0.65;0.65;;;6.20;91.90;;;;;;6372854;28;20050;-77
2020/12/28 00:30:13;;;;;;;0.65;0.65;;;6.50;92.10;;;;;;6353775;28;20027;-77
2020/12/28 00:33:13;;;;;;;0.68;0.68;;;6.10;91.90;;;;;;6373361;27;20098;-77
2020/12/28 00:36:15;;;;;;;0.70;0.70;;;6.20;91.90;;;;;;6359348;27;20015;-77
2020/12/28 00:39:15;;;;;;;1.45;0.90;;;6.00;91.30;;;;;;6359693;27;20019;-77
2020/12/28 00:42:16;;;;;;;0.88;0.88;;;6.00;99.90;;;;;;6359119;27;20539;-77
2020/12/28 00:45:16;;;;;;;0.73;0.70;;;6.00;98.50;;;;;;6359342;27;20088;-76
2020/12/28 00:48:17;;;;;;;0.80;0.80;;;5.90;98.90;;;;;;6377304;27;20031;-77
2020/12/28 00:51:17;;;;;;;0.70;0.70;;;5.90;99.90;;;;;;6358358;27;20069;-77
2020/12/28 00:54:18;;;;;;;0.70;0.70;;;6.20;97.90;;;;;;6377447;27;20425;-76
2020/12/28 00:57:19;;;;;;;0.52;0.52;;;6.00;98.60;;;;;;6377034;27;20015;-77
2020/12/28 01:00:19;;;;;;;0.85;0.85;;;6.00;99.90;;;;;;6376758;27;20042;-77
2020/12/28 01:03:20;;;;;;;1.00;1.00;;;;;;;;;;6376837;27;20027;-76
2020/12/28 01:06:21;;;;;;;0.90;0.90;;;6.00;99.90;;;;;;6376868;27;20011;-77
2020/12/28 01:09:21;;;;;;;2.08;0.77;;;5.90;99.90;;;;;;6376794;27;20038;-77
2020/12/28 01:12:22;;;;;;;0.68;0.68;;;;;;;;;;6376623;27;20027;-77
2020/12/28 01:15:23;;;;;;;0.90;0.90;;;;;;;;;;6375893;27;20019;-77
2020/12/28 01:18:24;;;;;;;0.63;0.63;;;5.70;99.90;;;;;;6376450;27;20073;-77
2020/12/28 01:21:25;;;;;;;0.73;0.73;;;;;;;;;;6376990;27;20545;-77
2020/12/28 01:24:25;;;;;;;0.80;0.80;;;5.40;99.90;;;;;;6376436;27;20076;-76
2020/12/28 01:27:26;;;;;;;0.77;0.77;;;;;;;;;;6376372;27;20090;-76
2020/12/28 01:30:27;;;;;;;1.27;0.82;;;;;;;;;;6376184;27;20019;-77
2020/12/28 01:33:28;;;;;;;0.50;0.50;;;5.50;99.20;;;;;;6376195;27;20063;-77
2020/12/28 01:36:28;;;;;;;0.60;0.60;;;5.50;99.90;;;;;;6376169;27;20023;-77
2020/12/28 01:39:29;;;;;;;0.75;0.75;;;5.40;99.90;;;;;;6374562;27;20512;-77
2020/12/28 01:42:29;;;;;;;0.80;0.80;;;5.90;94.90;;;;;;6332358;28;20027;-77
2020/12/28 01:45:30;;;;;;;1.15;1.00;;;5.30;95.00;;;;;;6349330;28;20020;-77
2020/12/28 01:48:31;;;;;;;0.82;0.82;;;5.80;95.00;;;;;;6332203;28;20026;-77
2020/12/28 01:51:31;;;;;;;1.25;1.15;;;5.40;99.90;;;;;;6332205;28;20514;-77
2020/12/28 01:54:32;;;;;;;0.88;0.88;;;5.30;95.40;;;;;;6315485;28;20047;-77
2020/12/28 01:57:33;;;;;;;0.80;0.80;;;6.00;95.90;;;;;;6332051;28;20023;-77
2020/12/28 02:00:34;;;;;;;0.90;0.90;;;5.60;95.90;;;;;;6332096;28;20482;-77
2020/12/28 02:03:34;;;;;;;1.00;1.00;;;5.70;94.80;;;;;;6350399;28;20045;-77
2020/12/28 02:06:35;;;;;;;0.82;0.80;;;5.50;95.10;;;;;;6335263;27;20102;-77
2020/12/28 02:09:36;;;;;;;0.85;0.85;;;5.80;95.30;;;;;;6357153;27;20026;-77
2020/12/28 02:12:36;;;;;;;0.65;0.60;;;5.60;95.90;;;;;;6375014;27;20039;-77
2020/12/28 02:15:37;;;;;;;0.98;0.80;;;5.40;95.70;;;;;;6357145;27;20449;-77
2020/12/28 02:18:38;;;;;;;0.82;0.82;;;;;;;;;;6375148;27;20026;-77
2020/12/28 02:21:39;;;;;;;0.80;0.80;;;4.40;93.90;;;;;;6375330;27;20068;-77
2020/12/28 02:24:39;;;;;;;0.80;0.80;;;5.50;95.30;;;;;;6375140;27;20039;-77
2020/12/28 02:27:40;;;;;;;0.82;0.82;;;4.90;99.90;;;;;;6356492;27;20042;-77
2020/12/28 02:30:40;;;;;;;0.60;0.60;;;5.50;95.40;;;;;;6374632;27;20033;-77
2020/12/28 02:33:42;;;;;;;0.90;0.90;;;5.60;95.60;;;;;;6374830;27;20027;-76
2020/12/28 02:36:43;;;;;;;0.80;0.80;;;4.90;96.00;;;;;;6374939;27;20015;-77
2020/12/28 02:39:43;;;;;;;0.82;0.82;;;4.90;99.90;;;;;;6374573;27;20758;-76
2020/12/28 02:42:44;;;;;;;0.70;0.70;;;5.20;96.20;;;;;;6374797;27;20019;-76
2020/12/28 02:45:44;;;;;;;1.08;1.08;;;5.60;96.20;;;;;;6374499;27;20024;-77
2020/12/28 02:48:45;;;;;;;0.90;0.90;;;5.10;96.10;;;;;;6374842;27;20034;-76
2020/12/28 02:51:45;;;;;;;0.95;0.95;;;5.60;96.40;;;;;;6374072;27;20073;-77
2020/12/28 02:54:46;;;;;;;1.13;1.02;;;5.30;96.30;;;;;;6356028;27;20027;-77
2020/12/28 02:57:47;;;;;;;0.63;0.63;;;4.60;99.90;;;;;;6376481;27;20110;-76
2020/12/28 03:00:48;;;;;;;1.83;1.70;;;5.20;96.50;;;;;;6374803;27;20039;-76
2020/12/28 03:03:48;;;;;;;6.00;3.35;;;4.70;96.20;;;;;;6338980;27;20509;-77
2020/12/28 03:06:49;;;;;;;2.53;1.45;;;;;;;;;;6374261;27;20361;-76
2020/12/28 03:09:50;;;;;;;1.40;1.30;;;4.70;94.80;;;;;;6358004;27;20030;-76
2020/12/28 03:12:50;;;;;;;1.73;1.63;;;5.20;96.50;;;;;;6374361;27;20058;-76
2020/12/28 03:16:20;;;;;;;1.45;1.35;;;4.60;99.90;;;;;;6374465;27;20080;-76
2020/12/28 03:19:21;;;;;;;2.63;1.30;;;4.40;99.40;;;;;;6316912;28;20068;-76
2020/12/28 03:22:22;;;;;;;2.80;1.45;;;;;;;;;;6319990;28;20399;-76
2020/12/28 03:25:23;;;;;;;4.97;2.95;;;;;;;;;;6320075;28;20032;-76
2020/12/28 03:28:24;;;;;;;1.38;1.27;;;4.70;99.90;;;;;;6320124;28;20068;-76
2020/12/28 03:31:28;;;;;;;2.35;1.65;;;4.40;99.90;;;;;;6319863;28;20031;-76
2020/12/28 03:34:28;;;;;;;21.55;10.65;;;4.40;99.90;;;;;;6319738;28;20036;-76
2020/12/28 03:37:29;;;;;;;47.03;22.67;;;4.50;99.90;;;;;;6319733;28;20060;-75
2020/12/28 03:40:29;;;;;;;11.73;6.72;;;4.20;99.90;;;;;;6319503;28;20028;-76
2020/12/28 03:43:30;;;;;;;2.70;1.92;;;4.60;99.90;;;;;;6319625;28;20462;-75
2020/12/28 03:46:31;;;;;;;2.65;2.08;;;;;;;;;;6319501;28;20105;-75
2020/12/28 03:49:31;;;;;;;0.60;0.60;;;4.10;99.90;;;;;;6345081;27;20031;-76
2020/12/28 03:52:32;;;;;;;0.75;0.75;;;5.00;99.90;;;;;;6372921;27;20114;-76
2020/12/28 03:55:33;;;;;;;0.95;0.95;;;;;;;;;;6373114;27;20019;-76
2020/12/28 03:58:34;;;;;;;16.92;10.40;;;4.20;99.90;;;;;;6372722;27;20484;-75
2020/12/28 04:01:34;;;;;;;1.70;1.58;;;4.60;99.90;;;;;;6372971;27;20108;-76
2020/12/28 04:04:35;;;;;;;5.10;2.42;;;4.60;95.70;;;;;;6373570;27;20046;-75
2020/12/28 04:07:35;;;;;;;13.90;7.60;;;4.80;95.30;;;;;;6372261;27;20027;-75
2020/12/28 04:10:36;;;;;;;5.28;3.22;;;4.60;95.30;;;;;;6372708;27;20770;-75
2020/12/28 04:13:36;;;;;;;12.13;7.00;;;4.50;95.70;;;;;;6372921;27;20107;-75
2020/12/28 04:16:37;;;;;;;15.98;7.97;;;4.40;95.60;;;;;;6373105;28;20031;-75
2020/12/28 04:19:38;;;;;;;17.25;8.60;;;4.40;95.90;;;;;;6354411;28;20019;-75
2020/12/28 04:22:38;;;;;;;16.58;8.52;;;4.30;96.10;;;;;;6354418;28;20031;-75
2020/12/28 04:25:39;;;;;;;16.98;7.00;;;4.40;96.00;;;;;;6354089;28;20035;-75
2020/12/28 04:28:39;;;;;;;15.75;7.85;;;4.30;96.00;;;;;;6372346;27;20055;-75
2020/12/28 04:31:40;;;;;;;9.73;4.90;;;4.30;95.70;;;;;;6372658;28;20048;-75
2020/12/28 04:34:41;;;;;;;36.00;14.80;;;4.10;95.40;;;;;;6372266;28;20024;-75
2020/12/28 04:37:42;;;;;;;30.52;13.70;;;4.10;95.30;;;;;;6372762;28;20334;-75
2020/12/28 04:40:42;;;;;;;5.60;2.95;;;3.50;95.20;;;;;;6354248;28;20027;-75
2020/12/28 04:43:43;;;;;;;7.82;3.30;;;3.90;95.80;;;;;;6354101;28;20152;-75
2020/12/28 04:46:43;;;;;;;10.98;5.25;;;4.40;95.90;;;;;;6372891;28;20027;-76
2020/12/28 04:49:45;;;;;;;2.72;2.20;;;3.90;96.10;;;;;;6337390;28;20365;-76
2020/12/28 04:52:46;;;;;;;2.90;2.67;;;4.00;96.10;;;;;;6372307;28;20465;-76
2020/12/28 04:55:47;;;;;;;2.35;2.10;;;3.80;95.90;;;;;;6372322;27;20034;-76
2020/12/28 04:58:47;;;;;;;4.25;2.83;;;3.80;95.60;;;;;;6371956;27;20029;-76
2020/12/28 05:01:52;;;;;;;5.13;3.20;;;3.50;95.40;;;;;;6372407;27;20043;-76
2020/12/28 05:05:03;;;;;;;3.35;2.40;;;4.00;95.60;;;;;;6354439;28;20126;-76
2020/12/28 05:08:04;;;;;;;2.05;1.95;;;3.30;95.40;;;;;;6353671;28;20049;-76
2020/12/28 05:11:09;;;;;;;4.03;3.50;;;3.80;95.00;;;;;;6372390;28;20061;-76
2020/12/28 05:14:15;;;;;;;3.65;3.30;;;3.30;93.70;;;;;;6372016;28;20027;-76
2020/12/28 05:17:16;;;;;;;2.28;2.00;;;4.00;95.20;;;;;;6353875;28;20469;-76
2020/12/28 05:20:21;;;;;;;3.65;2.25;;;3.60;95.20;;;;;;6373359;27;20028;-76
2020/12/28 05:23:22;;;;;;;1.98;1.88;;;4.00;95.10;;;;;;6377164;27;20106;-76
2020/12/28 05:26:22;;;;;;;1.70;1.60;;;3.70;94.80;;;;;;6376564;27;20019;-76
2020/12/28 05:29:25;;;;;;;2.13;1.80;;;4.40;95.10;;;;;;6376445;27;20027;-75
2020/12/28 05:32:26;;;;;;;55.13;25.88;;;3.60;94.90;;;;;;6376332;27;20019;-76
2020/12/28 05:35:28;;;;;;;2.63;2.15;;;3.50;94.90;;;;;;6358239;27;20026;-75
2020/12/28 05:38:28;;;;;;;3.53;2.45;;;4.50;95.40;;;;;;6376370;27;20023;-75
2020/12/28 05:41:29;;;;;;;4.38;2.90;;;3.90;95.70;;;;;;6358313;27;20051;-75
2020/12/28 05:44:29;;;;;;;26.15;15.27;;;3.60;95.90;;;;;;6376294;27;20023;-75
2020/12/28 05:47:30;;;;;;;31.15;18.42;;;3.30;96.10;;;;;;6376046;27;20368;-75
2020/12/28 05:50:31;;;;;;;97.85;49.28;;;3.50;96.20;;;;;;6357813;27;20084;-75
2020/12/28 05:53:32;;;;;;;5.85;4.03;;;3.50;96.30;;;;;;6376243;27;20027;-75
2020/12/28 05:56:33;;;;;;;1.55;1.42;;;3.50;96.40;;;;;;6341191;27;20106;-75
2020/12/28 05:59:35;;;;;;;4.80;3.65;;;3.60;96.30;;;;;;6376288;27;20023;-75
2020/12/28 06:02:35;;;;;;;1.63;1.52;;;4.00;96.70;;;;;;6376478;27;20050;-75
2020/12/28 06:05:36;;;;;;;1.92;1.83;;;3.70;96.80;;;;;;6340714;27;20015;-75
2020/12/28 06:08:41;;;;;;;2.25;2.13;;;2.80;99.90;;;;;;6376138;27;20080;-75
2020/12/28 06:11:41;;;;;;;2.13;1.92;;;3.00;96.40;;;;;;6375533;27;20059;-75
2020/12/28 06:14:42;;;;;;;5.28;2.00;;;3.30;96.30;;;;;;6375531;27;20030;-75
2020/12/28 06:17:42;;;;;;;2.92;2.47;;;3.30;96.30;;;;;;6375730;27;20019;-75
2020/12/28 06:20:43;;;;;;;2.20;2.00;;;3.30;96.30;;;;;;6357163;27;20030;-75
2020/12/28 06:23:50;;;;;;;0.90;0.90;;;3.90;96.60;;;;;;6375429;27;20031;-75
2020/12/28 06:26:59;;;;;;;17.17;10.25;;;3.80;96.50;;;;;;6375542;27;20021;-75
2020/12/28 06:30:16;;;;;;;2.38;2.10;;;3.30;96.40;;;;;;6375238;27;20068;-75
2020/12/28 06:33:17;;;;;;;2.15;1.70;;;3.50;96.20;;;;;;6374713;27;20031;-76
2020/12/28 06:36:18;;;;;;;2.20;1.83;;;3.50;96.10;;;;;;6375446;27;20601;-75
2020/12/28 06:39:18;;;;;;;2.33;1.80;;;2.90;96.00;;;;;;6375196;27;20372;-75
2020/12/28 06:42:19;;;;;;;2.45;2.25;;;3.40;96.20;;;;;;6356917;27;20076;-75
2020/12/28 06:45:19;;;;;;;2.33;2.13;;;3.40;95.90;;;;;;6339485;27;20027;-75
2020/12/28 06:48:20;;;;;;;2.20;2.00;;;3.50;96.00;;;;;;6374757;27;20023;-75
2020/12/28 06:51:22;;;;;;;11.23;8.10;;;4.30;96.50;;;;;;6374974;27;20500;-75
2020/12/28 06:54:22;;;;;;;7.47;4.65;;;3.60;96.20;;;;;;6355886;27;20468;-75
2020/12/28 06:57:23;;;;;;;2.20;2.00;;;2.90;99.90;;;;;;6374435;27;20031;-75
2020/12/28 07:00:24;;;;;;;2.17;1.88;;;3.70;96.40;;;;;;6374226;27;20039;-75
2020/12/28 07:03:25;;;;;;;40.47;20.40;;;3.70;96.50;;;;;;6374328;27;20027;-75
2020/12/28 07:06:25;;;;;;;9.38;5.55;;;3.70;96.50;;;;;;6374591;27;20027;-75
2020/12/28 07:09:26;;;;;;;5.60;3.80;;;3.40;96.30;;;;;;6356102;27;20035;-75
2020/12/28 07:12:26;;;;;;;8.77;4.80;;;3.10;99.90;;;;;;6374288;27;20051;-75
2020/12/28 07:15:27;;;;;;;2.80;2.47;;;2.90;99.90;;;;;;6374393;27;20709;-75
2020/12/28 07:18:28;;;;;;;2.90;2.40;;;3.30;99.90;;;;;;6374310;27;20027;-75
2020/12/28 07:21:28;;;;;;;4.32;2.70;;;3.10;99.90;;;;;;6374123;27;20015;-75
2020/12/28 07:24:29;;;;;;;6.35;5.68;;;3.00;99.90;;;;;;6373972;27;20368;-76
2020/12/28 07:27:30;;;;;;;4.20;3.13;;;3.00;99.90;;;;;;6355725;27;20034;-75
2020/12/28 07:30:30;;;;;;;9.43;5.72;;;3.00;99.90;;;;;;6374019;27;20027;-76
2020/12/28 07:33:31;;;;;;;12.95;7.10;;;;;;;;;;6373792;27;20405;-76
2020/12/28 07:40:25;;;;;;;3.03;2.42;;;;;;;;;;6337112;27;20035;-77
2020/12/28 07:43:29;;;;;;;7.60;3.58;;;4.00;99.90;;;;;;6354766;27;20011;-76
2020/12/28 07:46:38;;;;;;;1.30;1.30;;;4.10;99.90;;;;;;6373548;27;20019;-77
2020/12/28 07:49:41;;;;;;;1.30;1.20;;;3.60;99.90;;;;;;6355881;27;20418;-75
2020/12/28 07:53:00;;;;;;;8.45;5.63;;;4.30;99.90;;;;;;6331775;27;20067;-76
2020/12/28 07:56:02;;;;;;;2.60;2.40;;;3.50;99.90;;;;;;6354912;27;20015;-77
2020/12/28 07:59:26;;;;;;;14.40;8.73;;;4.30;99.90;;;;;;6334714;27;20023;-76
2020/12/28 08:02:49;;;;;;;5.63;4.10;;;3.80;94.90;;;;;;6349340;27;20377;-75
2020/12/28 08:05:51;;;;;;;2.33;2.13;;;4.30;95.90;;;;;;6350146;27;20050;-77
2020/12/28 08:09:01;;;;;;;2.75;2.20;;;4.50;95.70;;;;;;6350273;28;20035;-76
2020/12/28 08:12:02;;;;;;;2.28;1.92;;;4.40;95.30;;;;;;6350312;27;20122;-76
2020/12/28 08:15:03;;;;;;;5.32;3.10;;;3.60;95.00;;;;;;6333246;27;20049;-77
2020/12/28 08:18:13;;;;;;;5.95;4.35;;;3.60;95.40;;;;;;6369261;28;20058;-77
2020/12/28 08:21:13;;;;;;;7.47;5.93;;;3.50;99.90;;;;;;6350023;27;20102;-78
2020/12/28 08:24:18;;;;;;;4.00;3.60;;;4.20;95.30;;;;;;6350925;28;20411;-78
2020/12/28 08:27:18;;;;;;;3.15;2.80;;;3.50;95.60;;;;;;6368114;28;20035;-77
2020/12/28 08:30:19;;;;;;;4.05;3.10;;;3.60;99.90;;;;;;6349548;27;20092;-77
2020/12/28 08:33:20;;;;;;;4.32;3.92;;;4.00;95.50;;;;;;6368385;28;20047;-76
2020/12/28 08:36:23;;;;;;;4.25;3.28;;;4.20;95.90;;;;;;6349247;28;20028;-77
2020/12/28 08:39:24;;;;;;;2.05;1.95;;;3.90;95.80;;;;;;6332330;28;20104;-76
2020/12/28 08:42:31;;;;;;;3.92;2.00;;;4.30;96.00;;;;;;6315349;27;20027;-78
2020/12/28 08:45:32;;;;;;;3.08;2.63;;;3.70;94.10;;;;;;6350077;28;20042;-77
2020/12/28 08:48:33;;;;;;;2.72;2.40;;;4.20;95.40;;;;;;6368148;28;20061;-77
2020/12/28 08:51:33;;;;;;;2.33;2.13;;;4.50;95.30;;;;;;6368184;28;20805;-75
2020/12/28 08:54:34;;;;;;;2.30;2.10;;;4.50;95.30;;;;;;6351351;27;20019;-76
2020/12/28 08:57:34;;;;;;;5.05;3.30;;;4.30;95.30;;;;;;6352023;27;20057;-76
2020/12/28 09:00:35;;;;;;;3.65;3.22;;;4.50;94.70;;;;;;6372362;27;20186;-77
2020/12/28 09:03:36;;;;;;;5.97;3.70;;;4.40;94.50;;;;;;6371961;27;20035;-77
2020/12/28 09:06:40;;;;;;;3.47;2.85;;;4.40;94.70;;;;;;6372119;27;20031;-77
2020/12/28 09:09:41;;;;;;;3.55;2.90;;;4.70;94.70;;;;;;6353643;27;20759;-77
2020/12/28 09:12:42;;;;;;;5.90;3.72;;;4.90;94.60;;;;;;6372184;27;20069;-77
2020/12/28 09:15:43;;;;;;;15.15;9.02;;;4.30;99.90;;;;;;6372035;27;20019;-76
2020/12/28 09:18:43;;;;;;;11.25;5.93;;;4.70;94.30;;;;;;6372361;27;20019;-77
2020/12/28 09:21:44;;;;;;;10.93;8.10;;;4.80;94.20;;;;;;6371714;27;20098;-76
2020/12/28 09:24:44;;;;;;;10.88;7.32;;;4.40;99.90;;;;;;6369449;27;20031;-76
2020/12/28 09:27:45;;;;;;;34.70;17.27;;;4.90;94.20;;;;;;6368909;27;20019;-76
2020/12/28 09:30:45;;;;;;;3.65;3.10;;;4.80;94.10;;;;;;6368968;27;20030;-77
2020/12/28 09:33:46;;;;;;;3.33;2.67;;;5.00;94.40;;;;;;6370835;27;20119;-76
2020/12/28 09:36:47;;;;;;;8.80;5.82;;;5.10;93.90;;;;;;6370445;27;20372;-77
2020/12/28 09:39:47;;;;;;;5.03;3.30;;;5.10;94.60;;;;;;6353070;27;20023;-77
2020/12/28 09:42:48;;;;;;;3.92;2.75;;;5.10;93.90;;;;;;6371181;27;20050;-77
2020/12/28 09:45:48;;;;;;;2.88;2.00;;;5.20;94.40;;;;;;6371582;27;20494;-77
2020/12/28 09:48:49;;;;;;;5.07;4.07;;;4.60;99.90;;;;;;6352629;27;20023;-77
2020/12/28 09:51:53;;;;;;;9.68;4.05;;;5.10;99.90;;;;;;6335702;27;20034;-77
2020/12/28 09:54:54;;;;;;;5.25;3.90;;;4.90;93.20;;;;;;6352802;27;20080;-77
2020/12/28 09:57:54;;;;;;;11.82;8.35;;;3.70;99.90;;;;;;6371434;27;20441;-77
2020/12/28 10:00:55;;;;;;;7.13;5.00;;;4.00;99.90;;;;;;6371817;27;20051;-77
2020/12/28 10:03:56;;;;;;;4.60;3.90;;;;;;;;;;6371819;27;20038;-76
2020/12/28 10:06:56;;;;;;;5.43;3.35;;;4.50;99.90;;;;;;6370597;27;20031;-76
2020/12/28 10:09:57;;;;;;;4.85;2.58;;;;;;;;;;6371383;27;20046;-76
2020/12/28 10:12:58;;;;;;;2.50;1.98;;;4.80;97.20;;;;;;6352964;27;20043;-76
2020/12/28 10:15:59;;;;;;;3.08;2.30;;;5.20;99.90;;;;;;6371418;27;20035;-77
2020/12/28 10:18:59;;;;;;;4.70;2.60;;;5.20;99.10;;;;;;6371150;27;20019;-76
2020/12/28 10:22:00;;;;;;;3.55;3.05;;;5.30;93.50;;;;;;6335662;27;20042;-76
2020/12/28 10:25:01;;;;;;;6.65;6.05;;;5.20;93.30;;;;;;6371316;27;20024;-76
2020/12/28 10:28:02;;;;;;;7.22;4.10;;;5.40;93.30;;;;;;6370972;27;20031;-76
2020/12/28 10:31:07;;;;;;;6.50;5.40;;;5.30;93.10;;;;;;6370528;27;20034;-76
2020/12/28 10:34:07;;;;;;;9.68;7.38;;;5.60;93.10;;;;;;6352876;27;20079;-77
2020/12/28 10:37:08;;;;;;;10.23;8.80;;;5.30;93.20;;;;;;6352338;27;20027;-76
2020/12/28 10:40:09;;;;;;;13.70;9.80;;;5.30;93.90;;;;;;6371196;27;20068;-76
2020/12/28 10:43:09;;;;;;;11.50;10.30;;;5.00;94.30;;;;;;6370581;27;20092;-76
2020/12/28 10:46:10;;;;;;;5.75;5.00;;;4.90;94.30;;;;;;6370785;27;20071;-77
2020/12/28 10:49:11;;;;;;;14.13;5.32;;;5.40;94.70;;;;;;6370364;27;20034;-76
2020/12/28 10:52:11;;;;;;;1.35;1.25;;;5.10;95.40;;;;;;6351857;27;20366;-77
2020/12/28 10:55:12;;;;;;;1.63;1.52;;;4.90;93.10;;;;;;6370317;27;20031;-77
2020/12/28 10:58:13;;;;;;;1.30;1.20;;;4.70;93.40;;;;;;6370451;27;20019;-76
2020/12/28 11:01:14;;;;;;;1.42;1.35;;;5.00;93.70;;;;;;6369919;27;20490;-76
2020/12/28 11:04:14;;;;;;;1.73;1.63;;;4.40;94.00;;;;;;6317558;27;20029;-77
2020/12/28 11:07:15;;;;;;;1.52;1.50;;;3.90;94.10;;;;;;6370172;27;20095;-76
2020/12/28 11:10:15;;;;;;;1.65;1.55;;;4.70;94.20;;;;;;6366382;27;20114;-76
2020/12/28 11:13:16;;;;;;;1.30;1.20;;;3.80;99.90;;;;;;6351054;27;20031;-76
2020/12/28 11:16:26;;;;;;;1.77;1.67;;;3.90;99.90;;;;;;6369395;27;20498;-77
2020/12/28 11:19:27;;;;;;;1.40;1.40;;;4.10;93.20;;;;;;6349804;27;20528;-75
2020/12/28 11:22:30;;;;;;;0.70;0.70;;;4.20;93.40;;;;;;6369193;27;20051;-75
2020/12/28 11:25:30;;;;;;;0.75;0.70;;;4.20;93.50;;;;;;6368771;27;20035;-76
2020/12/28 11:28:31;;;;;;;0.80;0.80;;;4.50;93.50;;;;;;6350680;27;20369;-76
2020/12/28 11:31:32;;;;;;;1.50;1.40;;;4.50;94.10;;;;;;6368595;27;20770;-76
2020/12/28 11:34:32;;;;;;;0.60;0.60;;;4.30;92.90;;;;;;6350285;27;20023;-77
2020/12/28 11:37:33;;;;;;;2.10;1.90;;;4.30;93.20;;;;;;6368826;27;20019;-75
2020/12/28 11:40:34;;;;;;;0.52;0.52;;;4.80;92.60;;;;;;6368254;27;20358;-76
2020/12/28 11:43:34;;;;;;;0.65;0.65;;;4.60;92.90;;;;;;6350872;27;20053;-78
2020/12/28 11:46:38;;;;;;;2.00;1.05;;;4.40;92.90;;;;;;6369263;27;20023;-76
2020/12/28 11:49:39;;;;;;;1.05;1.05;;;4.80;92.70;;;;;;6369321;27;20552;-75
2020/12/28 11:52:40;;;;;;;0.60;0.60;;;4.20;92.40;;;;;;6369155;27;20039;-75
2020/12/28 11:59:00;;;;;;;1.48;1.38;;;4.60;90.50;;;;;;6353034;27;20027;-77
2020/12/28 12:02:01;;;;;;;1.40;1.30;;;4.60;90.80;;;;;;6365118;27;20070;-76
2020/12/28 12:05:01;;;;;;;1.23;1.20;;;4.30;90.60;;;;;;6368361;27;20030;-75
2020/12/28 12:08:02;;;;;;;0.95;0.95;;;4.80;89.80;;;;;;6367653;27;20465;-75
2020/12/28 12:11:14;;;;;;;2.35;1.08;;;4.60;96.50;;;;;;6364433;27;20038;-75
2020/12/28 12:14:15;;;;;;;1.10;1.10;;;4.70;85.10;;;;;;6332748;27;20420;-74
2020/12/28 12:17:16;;;;;;;1.25;1.15;;;4.80;86.60;;;;;;6364402;27;20273;-73
2020/12/28 12:20:16;;;;;;;1.15;1.05;;;4.90;85.70;;;;;;6369705;28;20042;-74
2020/12/28 12:23:18;;;;;;;1.38;1.30;;;4.90;86.60;;;;;;6370158;27;20031;-74
2020/12/28 12:26:19;;;;;;;1.83;1.73;;;5.00;86.20;;;;;;6351185;28;20023;-74
2020/12/28 12:29:20;;;;;;;2.37;1.37;;;5.00;85.50;;;;;;6352507;27;20103;-75
2020/12/28 12:32:22;;;;;;;4.13;1.83;;;5.40;84.50;;;;;;6374132;27;20043;-75
2020/12/28 12:35:22;;;;;;;2.78;2.40;;;5.30;85.00;;;;;;6353398;27;20027;-75
2020/12/28 12:38:23;;;;;;;1.90;1.80;;;5.50;84.60;;;;;;6373416;27;20098;-74
2020/12/28 12:41:23;;;;;;;2.25;1.90;;;5.60;84.40;;;;;;6373409;27;20449;-75
2020/12/28 12:44:24;;;;;;;3.55;3.22;;;5.50;85.20;;;;;;6372783;27;20054;-74
2020/12/28 12:47:24;;;;;;;1.65;1.55;;;5.50;85.20;;;;;;6372547;27;20035;-74
2020/12/28 12:50:25;;;;;;;1.98;1.88;;;5.70;80.30;;;;;;6373595;27;21087;-74
2020/12/28 12:53:26;;;;;;;3.38;3.03;;;5.90;83.10;;;;;;6371851;27;20050;-73
2020/12/28 12:56:26;;;;;;;4.70;3.75;;;5.50;83.60;;;;;;6353531;27;20076;-73
2020/12/28 12:59:27;;;;;;;3.85;2.75;;;5.80;84.10;;;;;;6372469;27;20362;-74
2020/12/28 13:02:27;;;;;;;8.77;6.10;;;5.70;82.30;;;;;;6371113;27;20058;-74
2020/12/28 13:05:28;;;;;;;14.80;9.50;;;5.80;81.40;;;;;;6372376;27;20096;-74
2020/12/28 13:08:30;;;;;;;8.75;6.13;;;5.80;80.60;;;;;;6371846;27;20033;-74
2020/12/28 13:11:31;;;;;;;12.02;7.45;;;5.60;82.00;;;;;;6353197;27;20122;-74
2020/12/28 13:14:31;;;;;;;10.25;5.95;;;5.50;82.40;;;;;;6353972;27;20030;-74
2020/12/28 13:17:32;;;;;;;2.60;2.10;;;5.70;81.30;;;;;;6372121;27;20039;-73
2020/12/28 13:20:32;;;;;;;5.00;3.47;;;5.70;82.40;;;;;;6371103;27;20098;-76
2020/12/28 13:23:33;;;;;;;4.70;3.90;;;5.70;82.50;;;;;;6371249;27;20088;-74
2020/12/28 13:26:36;;;;;;;4.60;2.42;;;5.50;80.50;;;;;;6372327;27;20019;-75
2020/12/28 13:29:37;;;;;;;;;;;5.90;87.50;;;;;;6372790;27;20407;-74
2020/12/28 13:32:38;;;;;;;2.33;1.58;;;5.70;81.30;;;;;;6372630;27;19919;-73
2020/12/28 13:35:39;;;;;;;1.70;1.60;;;5.50;91.40;;;;;;6372480;27;20322;-74
2020/12/28 13:38:39;;;;;;;2.53;2.08;;;5.20;76.00;;;;;;6372398;27;20071;-74
2020/12/28 13:41:40;;;;;;;3.35;2.30;;;5.60;79.10;;;;;;6370863;27;20134;-76
2020/12/28 13:44:41;;;;;;;5.70;2.80;;;5.30;92.30;;;;;;6316026;27;20402;-74
2020/12/28 13:47:41;;;;;;;3.03;1.70;;;4.90;93.40;;;;;;6369995;27;20027;-75
2020/12/28 13:50:42;;;;;;;2.85;1.98;;;5.60;93.40;;;;;;6369611;27;20113;-74
2020/12/28 13:53:42;;;;;;;1.50;1.40;;;5.70;91.70;;;;;;6371017;27;20027;-75
2020/12/28 13:56:43;;;;;;;1.27;1.17;;;;;;;;;;6370628;27;20453;-77
2020/12/28 13:59:44;;;;;;;3.40;1.92;;;5.60;91.40;;;;;;6370572;27;20023;-75
2020/12/28 14:02:45;;;;;;;1.80;1.70;;;;;;;;;;6352431;27;20477;-75
2020/12/28 14:05:45;;;;;;;2.53;1.63;;;5.50;91.50;;;;;;6370220;27;20019;-74
2020/12/28 14:08:47;;;;;;;2.92;1.90;;;5.60;92.30;;;;;;6370516;27;20027;-75
2020/12/28 14:11:48;;;;;;;5.97;2.47;;;;;;;;;;6371405;27;20044;-77
2020/12/28 14:14:49;;;;;;;2.25;1.63;;;5.40;93.70;;;;;;6371064;27;20023;-77
2020/12/28 14:17:50;;;;;;;1.52;1.30;;;;;;;;;;6371425;27;20031;-76
2020/12/28 14:20:51;;;;;;;2.53;1.50;;;;;;;;;;6371158;27;20019;-75
2020/12/28 14:23:51;;;;;;;3.60;1.60;;;4.10;99.90;;;;;;6370811;27;20019;-77
2020/12/28 14:26:52;;;;;;;2.45;1.15;;;;;;;;;;6371364;27;20385;-74
2020/12/28 14:29:53;;;;;;;1.40;1.13;;;3.90;99.90;;;;;;6370989;27;20022;-75
2020/12/28 14:32:53;;;;;;;3.00;1.63;;;3.70;96.40;;;;;;6370652;27;20058;-75
2020/12/28 14:35:55;;;;;;;2.35;1.45;;;4.40;96.30;;;;;;6352324;27;20051;-74
2020/12/28 14:38:56;;;;;;;1.60;1.13;;;4.20;89.00;;;;;;6370859;27;20072;-75
2020/12/28 14:41:58;;;;;;;2.50;1.27;;;4.40;87.30;;;;;;6352553;27;20419;-76
2020/12/28 14:44:58;;;;;;;3.85;1.70;;;4.70;86.80;;;;;;6352182;27;20054;-78
2020/12/28 14:47:59;;;;;;;8.73;2.47;;;4.60;85.90;;;;;;6335108;27;20429;-75
2020/12/28 14:51:02;;;;;;;3.63;2.38;;;4.20;94.90;;;;;;6348075;27;20041;-76
2020/12/28 14:54:03;;;;;;;11.98;4.82;;;4.90;84.70;;;;;;6351077;27;20110;-76
2020/12/28 14:57:03;;;;;;;8.38;4.35;;;4.50;84.00;;;;;;6368976;27;20041;-77
2020/12/28 15:00:04;;;;;;;32.72;13.70;;;4.30;94.30;;;;;;6315544;27;20089;-77
2020/12/28 15:03:05;;;;;;;4.65;2.78;;;4.70;87.60;;;;;;6316779;27;20019;-76
2020/12/28 15:06:53;;;;;;;13.85;6.40;;;4.40;93.00;;;;;;6333659;27;20027;-77
2020/12/28 15:09:58;;;;;;;10.85;5.45;;;;;;;;;;6224857;28;20034;-77
2020/12/28 15:14:03;;;;;;;;;;;;;;;;;;;;;
2020/12/28 15:21:44;;;;;;;6.38;3.65;;;4.30;92.60;;;;;;6244851;28;20037;-76
2020/12/28 15:24:51;;;;;;;6.93;1.83;;;4.30;92.70;;;;;;6260152;28;20135;-79
2020/12/28 15:27:58;;;;;;;5.20;2.15;;;;;;;;;;6255681;28;20071;-78
2020/12/28 15:35:38;;;;;;;4.40;1.92;;;3.90;79.50;;;;;;6178254;28;20508;-75
2020/12/28 15:39:13;;;;;;;2.55;1.98;;;3.60;90.50;;;;;;6137694;29;20047;-76
2020/12/28 15:50:21;;;;;;;2.63;1.75;;;3.60;77.00;;;;;;6080564;29;20463;-78
2020/12/28 15:57:18;;;;;;;3.75;1.70;;;3.70;90.70;;;;;;6140270;29;20039;-76
2020/12/28 16:00:19;;;;;;;2.17;1.80;;;4.50;90.50;;;;;;6126250;29;20492;-76
2020/12/28 16:03:20;;;;;;;3.45;1.65;;;4.20;79.60;;;;;;6248308;27;20042;-77
2020/12/28 16:06:21;;;;;;;3.85;1.67;;;4.20;78.70;;;;;;6330661;27;20007;-77
2020/12/28 16:09:22;;;;;;;3.55;1.70;;;3.70;79.10;;;;;;6349922;27;20461;-76
2020/12/28 16:12:22;;;;;;;1.98;1.35;;;4.10;77.20;;;;;;6368057;27;20045;-76
2020/12/28 16:15:23;;;;;;;3.83;1.52;;;3.80;77.80;;;;;;6364607;27;20031;-76
2020/12/28 16:18:23;;;;;;;3.00;1.40;;;3.90;76.10;;;;;;6332445;27;20056;-75
2020/12/28 16:21:24;;;;;;;1.02;1.02;;;3.60;77.90;;;;;;6315542;28;20023;-76
2020/12/28 16:24:24;;;;;;;1.63;1.00;;;4.30;77.00;;;;;;6368244;28;20126;-75
2020/12/28 16:27:25;;;;;;;3.20;1.90;;;3.70;77.10;;;;;;6368028;28;20039;-74
2020/12/28 16:30:26;;;;;;;3.15;1.88;;;4.10;76.60;;;;;;6368186;28;20376;-75
2020/12/28 16:33:26;;;;;;;6.70;4.82;;;3.70;76.40;;;;;;6367151;28;20091;-74